Time;durP1;ratioP1;P1;durP2;ratioP2;P2;SDS_P1;SDS_P2;PMS_P1;PMS_P2;Temp;Humidity;BMP_temperature;BMP_pressure;BME280_temperature;BME280_humidity;BME280_pressure;Samples;Min_cycle;Max_cycle;Signal;HPM_P1;HPM_P2
2021/08/08 00:00:08;;;;;;;;;;;17.30;99.90;17.60;99212.00;;;;343973;28;87230;-90
2021/08/08 00:00:21;;;;;;;;;;;17.30;99.90;17.60;99215.00;;;;343148;28;83226;-89
2021/08/08 00:00:33;;;;;;;;;;;17.30;99.90;17.60;99213.00;;;;341618;28;86014;-89
2021/08/08 00:00:45;;;;;;;;;;;17.30;99.90;17.60;99220.00;;;;342763;28;83552;-90
2021/08/08 00:00:57;;;;;;;;;;;17.30;99.90;17.70;99213.00;;;;342651;28;85683;-89
2021/08/08 00:01:10;;;;;;;;;;;17.30;99.90;17.70;99215.00;;;;344179;28;82602;-89
2021/08/08 00:01:22;;;;;;;;;;;17.30;99.90;17.70;99219.00;;;;345045;28;86614;-89
2021/08/08 00:01:35;;;;;;;;;;;17.30;99.90;17.70;99219.00;;;;344145;28;82572;-89
2021/08/08 00:01:48;;;;;;;;;;;17.30;99.90;17.70;99214.00;;;;348430;27;84739;-89
2021/08/08 00:02:01;;;;;;;;;;;17.30;99.90;17.70;99217.00;;;;347187;28;83427;-90
2021/08/08 00:02:14;;;;;;;;;;;17.30;99.90;17.50;99221.00;;;;346948;28;87234;-89
2021/08/08 00:02:27;;;;;;;;;;;17.30;99.90;17.50;99215.00;;;;345891;28;83360;-89
2021/08/08 00:02:40;;;;;;;;;;;17.30;99.90;17.50;99218.00;;;;345529;28;85314;-89
2021/08/08 00:02:52;;;;;;;;;;;17.30;99.90;17.50;99217.00;;;;345442;28;83568;-89
2021/08/08 00:03:05;;;;;;;;;;;17.30;99.90;17.40;99218.00;;;;344124;28;84569;-89
2021/08/08 00:03:18;;;;;;;;;;;17.30;99.90;17.50;99218.00;;;;345609;28;82543;-89
2021/08/08 00:03:30;;;;;;;;;;;17.30;99.90;17.60;99212.00;;;;342946;28;84630;-89
2021/08/08 00:03:42;;;;;;;;;;;17.30;99.90;17.50;99221.00;;;;344209;28;83498;-89
2021/08/08 00:03:55;;;;;;;;;;;17.30;99.90;17.50;99221.00;;;;344215;28;86945;-89
2021/08/08 00:04:23;;;;;;;;;;;17.30;99.90;17.60;99221.00;;;;344452;28;83340;-89
2021/08/08 00:04:35;;;;;;;;;;;17.30;99.90;17.50;99219.00;;;;344439;28;83809;-89
2021/08/08 00:04:48;;;;;;;;;;;17.30;99.90;17.60;99226.00;;;;342654;28;82645;-89
2021/08/08 00:05:00;;;;;;;;;;;17.30;99.90;17.60;99215.00;;;;344115;28;86848;-89
2021/08/08 00:05:13;;;;;;;;;;;17.20;99.90;17.60;99222.00;;;;341732;28;83356;-89
2021/08/08 00:05:25;;;;;;;;;;;17.30;99.90;17.60;99221.00;;;;342995;28;83458;-89
2021/08/08 00:05:37;;;;;;;;;;;17.30;99.90;17.50;99219.00;;;;344171;28;83433;-90
2021/08/08 00:05:49;;;;;;;;;;;17.30;99.90;17.50;99228.00;;;;344128;28;84230;-89
2021/08/08 00:06:02;;;;;;;;;;;17.30;99.90;17.50;99220.00;;;;344477;28;83246;-89
2021/08/08 00:06:14;;;;;;;;;;;17.30;99.90;17.50;99228.00;;;;342643;28;86819;-89
2021/08/08 00:06:27;;;;;;;;;;;17.30;99.90;17.40;99224.00;;;;341478;28;83502;-89
2021/08/08 00:06:40;;;;;;;;;;;17.20;99.90;17.40;99229.00;;;;341569;28;84857;-90
2021/08/08 00:06:56;;;;;;;;;;;17.30;99.90;17.40;99226.00;;;;342667;28;83402;-89
2021/08/08 00:07:09;;;;;;;;;;;17.20;99.90;17.30;99229.00;;;;341902;28;84832;-89
2021/08/08 00:07:21;;;;;;;;;;;17.20;99.90;17.30;99224.00;;;;340548;28;82662;-89
2021/08/08 00:07:34;;;;;;;;;;;17.20;99.90;17.30;99229.00;;;;342061;28;83739;-89
2021/08/08 00:07:47;;;;;;;;;;;17.20;99.90;17.30;99233.00;;;;342103;28;83511;-90
2021/08/08 00:08:00;;;;;;;;;;;17.20;99.90;17.40;99225.00;;;;340533;28;86875;-89
2021/08/08 00:08:13;;;;;;;;;;;17.20;99.90;17.40;99226.00;;;;342211;28;83312;-89
2021/08/08 00:08:26;;;;;;;;;;;17.20;99.90;17.40;99226.00;;;;343201;28;85518;-89
2021/08/08 00:08:39;;;;;;;;;;;17.20;99.90;17.40;99229.00;;;;340906;28;83215;-89
2021/08/08 00:08:51;;;;;;;;;;;17.20;99.90;17.40;99225.00;;;;344475;28;86935;-89
2021/08/08 00:09:04;;;;;;;;;;;17.20;99.90;17.40;99229.00;;;;345795;28;83551;-89
2021/08/08 00:09:17;;;;;;;;;;;17.20;99.90;17.40;99226.00;;;;344841;28;83727;-89
2021/08/08 00:09:31;;;;;;;;;;;17.20;99.90;17.40;99226.00;;;;342237;28;82407;-89
2021/08/08 00:09:45;;;;;;;;;;;17.20;99.90;17.40;99233.00;;;;341857;28;84771;-89
2021/08/08 00:09:57;;;;;;;;;;;17.20;99.90;17.50;99225.00;;;;343298;28;83464;-90
2021/08/08 00:10:11;;;;;;;;;;;17.20;99.90;17.40;99225.00;;;;344470;28;86445;-89
2021/08/08 00:10:23;;;;;;;;;;;17.20;99.90;17.50;99229.00;;;;343609;28;83319;-89
2021/08/08 00:10:36;;;;;;;;;;;17.20;99.90;17.60;99222.00;;;;341805;28;86725;-89
2021/08/08 00:10:48;;;;;;;;;;;17.20;99.90;17.60;99223.00;;;;343535;28;83339;-89
2021/08/08 00:11:02;;;;;;;;;;;17.20;99.90;17.70;99218.00;;;;344756;28;85241;-90
2021/08/08 00:11:15;;;;;;;;;;;17.20;99.90;17.60;99222.00;;;;343572;28;83339;-89
2021/08/08 00:11:27;;;;;;;;;;;17.20;99.90;17.50;99222.00;;;;344364;28;86830;-89
2021/08/08 00:11:42;;;;;;;;;;;17.20;99.90;17.50;99215.00;;;;344564;28;83524;-89
2021/08/08 00:11:55;;;;;;;;;;;17.20;99.90;17.50;99221.00;;;;341814;28;85860;-90
2021/08/08 00:12:07;;;;;;;;;;;17.20;99.90;17.40;99216.00;;;;344642;28;82592;-89
2021/08/08 00:12:19;;;;;;;;;;;17.30;99.90;17.40;99216.00;;;;344727;28;83108;-89
2021/08/08 00:12:32;;;;;;;;;;;17.20;99.90;17.40;99229.00;;;;343549;28;83387;-89
2021/08/08 00:12:45;;;;;;;;;;;17.20;99.90;17.40;99222.00;;;;343222;28;85374;-89
2021/08/08 00:12:57;;;;;;;;;;;17.20;99.90;17.40;99219.00;;;;344782;28;82527;-89
2021/08/08 00:13:10;;;;;;;;;;;17.20;99.90;17.40;99213.00;;;;343357;28;86089;-91
2021/08/08 00:13:22;;;;;;;;;;;17.20;99.90;17.30;99223.00;;;;346167;28;83401;-90
2021/08/08 00:13:36;;;;;;;;;;;17.20;99.90;17.30;99225.00;;;;344321;28;84820;-90
2021/08/08 00:13:49;;;;;;;;;;;17.20;99.90;17.40;99216.00;;;;343253;28;83508;-89
2021/08/08 00:14:02;;;;;;;;;;;17.20;99.90;17.40;99217.00;;;;346026;28;87088;-90
2021/08/08 00:14:14;;;;;;;;;;;17.20;99.90;17.40;99221.00;;;;346098;28;83469;-90
2021/08/08 00:14:27;;;;;;;;;;;17.20;99.90;17.40;99215.00;;;;347569;28;85557;-90
2021/08/08 00:14:39;;;;;;;;;;;17.20;99.90;17.40;99224.00;;;;343497;28;83353;-90
2021/08/08 00:14:52;;;;;;;;;;;17.20;99.90;17.40;99222.00;;;;344712;28;84427;-90
2021/08/08 00:15:08;;;;;;;;;;;17.20;99.90;17.40;99214.00;;;;344800;28;83503;-90
2021/08/08 00:15:21;;;;;;;;;;;17.20;99.90;17.40;99217.00;;;;344787;28;83550;-89
2021/08/08 00:15:34;;;;;;;;;;;17.20;99.90;17.40;99227.00;;;;343388;28;83525;-90
2021/08/08 00:15:47;;;;;;;;;;;17.20;99.90;17.30;99228.00;;;;340714;28;84419;-89
2021/08/08 00:15:59;;;;;;;;;;;17.10;99.90;17.20;99222.00;;;;344637;28;83575;-90
2021/08/08 00:16:12;;;;;;;;;;;17.20;99.90;17.30;99224.00;;;;345752;28;86943;-90
2021/08/08 00:16:27;;;;;;;;;;;17.20;99.90;17.20;99224.00;;;;340813;28;83161;-91
2021/08/08 00:16:39;;;;;;;;;;;17.20;99.90;17.20;99223.00;;;;340640;28;82862;-89
2021/08/08 00:16:52;;;;;;;;;;;17.20;99.90;17.20;99219.00;;;;341883;28;82603;-89
2021/08/08 00:17:04;;;;;;;;;;;17.20;99.90;17.20;99222.00;;;;343289;28;83347;-90
2021/08/08 00:17:16;;;;;;;;;;;17.10;99.90;17.20;99221.00;;;;344662;28;83637;-90
2021/08/08 00:17:29;;;;;;;;;;;17.20;99.90;17.20;99222.00;;;;341738;28;83426;-89
2021/08/08 00:17:41;;;;;;;;;;;17.20;99.90;17.20;99224.00;;;;344480;28;83524;-89
2021/08/08 00:17:54;;;;;;;;;;;17.10;99.90;17.20;99219.00;;;;345979;28;85726;-89
2021/08/08 00:18:06;;;;;;;;;;;17.20;99.90;17.20;99220.00;;;;344758;28;83457;-89
2021/08/08 00:18:19;;;;;;;;;;;17.10;99.90;17.20;99226.00;;;;343090;28;86245;-92
2021/08/08 00:18:32;;;;;;;;;;;17.10;99.90;17.20;99222.00;;;;341788;28;82673;-89
2021/08/08 00:18:48;;;;;;;;;;;17.10;99.90;17.30;99225.00;;;;342042;28;83575;-89
2021/08/08 00:19:01;;;;;;;;;;;17.10;99.90;17.30;99228.00;;;;343187;28;83530;-90
2021/08/08 00:19:14;;;;;;;;;;;17.10;99.90;17.20;99219.00;;;;344606;28;87571;-89
2021/08/08 00:19:26;;;;;;;;;;;17.10;99.90;17.20;99220.00;;;;343393;28;83481;-90
2021/08/08 00:19:38;;;;;;;;;;;17.10;99.90;17.20;99219.00;;;;340565;28;85954;-89
2021/08/08 00:19:51;;;;;;;;;;;17.10;99.90;17.20;99219.00;;;;343305;28;83581;-89
2021/08/08 00:20:06;;;;;;;;;;;17.10;99.90;17.20;99216.00;;;;343157;28;84519;-89
2021/08/08 00:20:19;;;;;;;;;;;17.10;99.90;17.20;99224.00;;;;343401;28;83421;-89
2021/08/08 00:20:31;;;;;;;;;;;17.10;99.90;17.30;99224.00;;;;343458;28;85607;-89
2021/08/08 00:20:44;;;;;;;;;;;17.10;99.90;17.30;99221.00;;;;340846;28;83409;-89
2021/08/08 00:20:56;;;;;;;;;;;17.10;99.90;17.30;99220.00;;;;341823;28;85704;-89
2021/08/08 00:21:09;;;;;;;;;;;17.10;99.90;17.30;99223.00;;;;343294;28;83603;-89
2021/08/08 00:21:21;;;;;;;;;;;17.10;99.90;17.30;99223.00;;;;342029;28;85836;-89
2021/08/08 00:21:34;;;;;;;;;;;17.10;99.90;17.20;99219.00;;;;343249;28;83570;-89
2021/08/08 00:21:46;;;;;;;;;;;17.10;99.90;17.20;99223.00;;;;342075;28;84951;-89
2021/08/08 00:21:58;;;;;;;;;;;17.00;99.90;17.20;99221.00;;;;343104;28;83609;-90
2021/08/08 00:22:10;;;;;;;;;;;17.10;99.90;17.20;99226.00;;;;343489;28;83240;-89
2021/08/08 00:22:23;;;;;;;;;;;17.00;99.90;17.20;99219.00;;;;341847;28;83643;-89
2021/08/08 00:22:36;;;;;;;;;;;17.10;99.90;17.20;99223.00;;;;344569;28;84366;-89
2021/08/08 00:22:48;;;;;;;;;;;17.00;99.90;17.20;99221.00;;;;345916;28;83475;-89
2021/08/08 00:23:01;;;;;;;;;;;17.00;99.90;17.20;99213.00;;;;344546;28;85355;-89
2021/08/08 00:23:13;;;;;;;;;;;17.10;99.90;17.20;99222.00;;;;342120;28;83487;-89
2021/08/08 00:23:26;;;;;;;;;;;17.00;99.90;17.10;99220.00;;;;343187;28;85606;-89
2021/08/08 00:23:39;;;;;;;;;;;17.10;99.90;17.10;99226.00;;;;340722;28;83474;-89
2021/08/08 00:23:51;;;;;;;;;;;17.00;99.90;17.10;99223.00;;;;342154;28;83337;-90
2021/08/08 00:24:04;;;;;;;;;;;17.00;99.90;17.20;99225.00;;;;341906;28;82632;-89
2021/08/08 00:24:17;;;;;;;;;;;17.00;99.90;17.10;99224.00;;;;343488;28;82569;-89
2021/08/08 00:24:30;;;;;;;;;;;17.00;99.90;17.20;99223.00;;;;343510;28;83396;-90
2021/08/08 00:24:42;;;;;;;;;;;17.00;99.90;17.20;99223.00;;;;343411;28;84914;-90
2021/08/08 00:24:55;;;;;;;;;;;17.00;99.90;17.10;99214.00;;;;342140;28;83399;-89
2021/08/08 00:25:09;;;;;;;;;;;17.00;99.90;17.20;99222.00;;;;344541;28;85484;-89
2021/08/08 00:25:22;;;;;;;;;;;17.00;99.90;17.20;99214.00;;;;343547;28;83305;-89
2021/08/08 00:25:34;;;;;;;;;;;17.00;99.90;17.30;99221.00;;;;340366;28;87385;-89
2021/08/08 00:25:48;;;;;;;;;;;17.00;99.90;17.20;99224.00;;;;344659;28;83501;-89
2021/08/08 00:26:00;;;;;;;;;;;17.00;99.90;17.20;99220.00;;;;344416;28;87268;-89
2021/08/08 00:26:13;;;;;;;;;;;17.00;99.90;17.10;99222.00;;;;343188;28;83526;-89
2021/08/08 00:26:25;;;;;;;;;;;17.00;99.90;17.10;99225.00;;;;344481;28;86662;-89
2021/08/08 00:26:38;;;;;;;;;;;17.00;99.90;17.00;99216.00;;;;343497;28;83350;-90
2021/08/08 00:26:51;;;;;;;;;;;17.00;99.90;17.00;99223.00;;;;345661;28;83666;-89
2021/08/08 00:27:04;;;;;;;;;;;17.00;99.90;17.00;99223.00;;;;341882;28;82559;-89
2021/08/08 00:27:16;;;;;;;;;;;17.00;99.90;17.00;99226.00;;;;341863;28;84293;-89
2021/08/08 00:27:29;;;;;;;;;;;17.00;99.90;17.10;99224.00;;;;340657;28;83398;-89
2021/08/08 00:27:41;;;;;;;;;;;17.00;99.90;17.20;99226.00;;;;341792;28;86679;-89
2021/08/08 00:27:53;;;;;;;;;;;17.00;99.90;17.20;99227.00;;;;344623;28;82555;-90
2021/08/08 00:28:06;;;;;;;;;;;17.00;99.90;17.20;99218.00;;;;343388;28;86804;-89
2021/08/08 00:28:18;;;;;;;;;;;17.00;99.90;17.10;99222.00;;;;340475;28;83558;-89
2021/08/08 00:28:31;;;;;;;;;;;17.00;99.90;17.10;99222.00;;;;340534;28;84487;-89
2021/08/08 00:28:45;;;;;;;;;;;17.00;99.90;17.10;99229.00;;;;340796;28;83464;-89
2021/08/08 00:28:57;;;;;;;;;;;17.00;99.90;17.10;99215.00;;;;342078;28;85570;-89
2021/08/08 00:29:09;;;;;;;;;;;17.00;99.90;17.20;99223.00;;;;342127;28;83519;-89
2021/08/08 00:29:21;;;;;;;;;;;17.00;99.90;17.20;99218.00;;;;340499;28;84430;-89
2021/08/08 00:29:34;;;;;;;;;;;17.00;99.90;17.00;99222.00;;;;341860;28;83527;-89
2021/08/08 00:29:46;;;;;;;;;;;17.00;99.90;17.00;99216.00;;;;343351;28;85872;-89
2021/08/08 00:29:58;;;;;;;;;;;16.90;99.90;16.90;99211.00;;;;344682;28;83533;-89
2021/08/08 00:30:10;;;;;;;;;;;16.90;99.90;17.10;99223.00;;;;339393;28;84705;-89
2021/08/08 00:30:23;;;;;;;;;;;16.90;99.90;17.10;99217.00;;;;343290;28;82572;-89
2021/08/08 00:30:35;;;;;;;;;;;16.90;99.90;17.10;99216.00;;;;342960;28;83185;-89
2021/08/08 00:30:48;;;;;;;;;;;17.00;99.90;17.10;99216.00;;;;343471;28;82534;-89
2021/08/08 00:31:01;;;;;;;;;;;17.00;99.90;17.10;99220.00;;;;340429;28;87207;-89
2021/08/08 00:31:13;;;;;;;;;;;17.00;99.90;17.10;99220.00;;;;344576;28;83294;-89
2021/08/08 00:31:25;;;;;;;;;;;17.00;99.90;17.10;99221.00;;;;343195;28;85260;-89
2021/08/08 00:31:38;;;;;;;;;;;16.90;99.90;17.00;99223.00;;;;341871;28;82472;-89
2021/08/08 00:31:50;;;;;;;;;;;16.90;99.90;17.00;99220.00;;;;343149;28;85960;-89
2021/08/08 00:32:02;;;;;;;;;;;16.90;99.90;16.90;99213.00;;;;341998;28;82594;-90
2021/08/08 00:32:15;;;;;;;;;;;16.90;99.90;17.00;99219.00;;;;344460;28;86214;-89
2021/08/08 00:32:27;;;;;;;;;;;16.90;99.90;17.10;99220.00;;;;343296;28;83483;-89
2021/08/08 00:32:39;;;;;;;;;;;16.90;99.90;17.10;99217.00;;;;339402;28;87408;-89
2021/08/08 00:32:52;;;;;;;;;;;16.90;99.90;17.00;99222.00;;;;340562;28;83536;-89
2021/08/08 00:33:04;;;;;;;;;;;16.90;99.90;17.00;99223.00;;;;343419;28;85484;-90
2021/08/08 00:33:17;;;;;;;;;;;16.90;99.90;17.00;99220.00;;;;342077;28;83356;-89
2021/08/08 00:33:29;;;;;;;;;;;16.90;99.90;17.00;99217.00;;;;343138;28;85553;-89
2021/08/08 00:33:42;;;;;;;;;;;16.90;99.90;16.90;99223.00;;;;342112;28;83471;-89
2021/08/08 00:33:54;;;;;;;;;;;16.90;99.90;16.90;99219.00;;;;341699;28;85917;-89
2021/08/08 00:34:06;;;;;;;;;;;16.90;99.90;16.90;99218.00;;;;342201;28;83223;-89
2021/08/08 00:34:19;;;;;;;;;;;16.90;99.90;16.90;99218.00;;;;341799;28;84606;-89
2021/08/08 00:34:31;;;;;;;;;;;16.90;99.90;16.90;99221.00;;;;341975;28;82573;-89
2021/08/08 00:34:43;;;;;;;;;;;16.90;99.90;16.90;99218.00;;;;341965;28;84726;-90
2021/08/08 00:34:56;;;;;;;;;;;16.90;99.90;17.00;99213.00;;;;343564;28;82206;-89
2021/08/08 00:35:08;;;;;;;;;;;16.90;99.90;17.00;99223.00;;;;341891;28;86648;-89
2021/08/08 00:35:21;;;;;;;;;;;16.90;99.90;16.90;99223.00;;;;343444;28;83379;-89
2021/08/08 00:35:34;;;;;;;;;;;16.90;99.90;17.00;99222.00;;;;344388;28;85181;-89
2021/08/08 00:35:47;;;;;;;;;;;16.90;99.90;17.00;99215.00;;;;343599;28;82272;-89
2021/08/08 00:36:00;;;;;;;;;;;16.90;99.90;16.90;99217.00;;;;340669;28;84975;-89
2021/08/08 00:36:14;;;;;;;;;;;16.90;99.90;17.00;99218.00;;;;340528;28;82615;-89
2021/08/08 00:36:26;;;;;;;;;;;16.90;99.90;17.00;99213.00;;;;340519;28;86417;-91
2021/08/08 00:36:38;;;;;;;;;;;16.90;99.90;17.00;99219.00;;;;340754;28;83364;-90
2021/08/08 00:36:51;;;;;;;;;;;16.90;99.90;16.90;99215.00;;;;341764;28;87184;-89
2021/08/08 00:37:04;;;;;;;;;;;16.90;99.90;16.90;99226.00;;;;342117;28;83375;-89
2021/08/08 00:37:16;;;;;;;;;;;16.90;99.90;16.90;99220.00;;;;340446;28;86634;-89
2021/08/08 00:37:29;;;;;;;;;;;16.80;99.90;16.90;99223.00;;;;344522;28;83449;-89
2021/08/08 00:37:44;;;;;;;;;;;16.80;99.90;16.80;99218.00;;;;343534;28;83977;-89
2021/08/08 00:37:56;;;;;;;;;;;16.80;99.90;16.90;99223.00;;;;344960;28;83275;-89
2021/08/08 00:38:09;;;;;;;;;;;16.80;99.90;16.90;99219.00;;;;340606;28;88161;-89
2021/08/08 00:38:22;;;;;;;;;;;16.80;99.90;17.00;99217.00;;;;340754;28;82538;-91
2021/08/08 00:38:34;;;;;;;;;;;16.80;99.90;17.00;99222.00;;;;341738;28;87342;-89
2021/08/08 00:38:47;;;;;;;;;;;16.80;99.90;17.10;99219.00;;;;343453;28;83390;-89
2021/08/08 00:39:00;;;;;;;;;;;16.80;99.90;17.10;99223.00;;;;344457;28;87212;-89
2021/08/08 00:39:14;;;;;;;;;;;16.80;99.90;17.00;99220.00;;;;343550;28;83242;-89
2021/08/08 00:39:26;;;;;;;;;;;16.80;99.90;16.90;99218.00;;;;342011;28;85567;-89
2021/08/08 00:39:38;;;;;;;;;;;16.80;99.90;16.90;99222.00;;;;341921;28;83671;-89
2021/08/08 00:39:50;;;;;;;;;;;16.80;99.90;16.90;99217.00;;;;342076;28;84673;-89
2021/08/08 00:40:08;;;;;;;;;;;16.80;99.90;16.90;99216.00;;;;342240;28;83377;-89
2021/08/08 00:40:20;;;;;;;;;;;16.80;99.90;16.90;99220.00;;;;343346;28;85657;-89
2021/08/08 00:40:33;;;;;;;;;;;16.80;99.90;17.00;99219.00;;;;344664;28;82583;-89
2021/08/08 00:40:45;;;;;;;;;;;16.80;99.90;16.90;99218.00;;;;343451;28;84045;-89
2021/08/08 00:40:58;;;;;;;;;;;16.80;99.90;16.90;99223.00;;;;343079;28;82741;-88
2021/08/08 00:41:10;;;;;;;;;;;16.80;99.90;16.90;99220.00;;;;343452;28;85012;-89
2021/08/08 00:41:22;;;;;;;;;;;16.80;99.90;16.80;99223.00;;;;342252;28;82340;-90
2021/08/08 00:41:35;;;;;;;;;;;16.80;99.90;16.80;99219.00;;;;343040;28;85760;-89
2021/08/08 00:41:47;;;;;;;;;;;16.80;99.90;16.80;99223.00;;;;342098;28;82526;-89
2021/08/08 00:42:00;;;;;;;;;;;16.80;99.90;16.80;99219.00;;;;340622;28;85403;-89
2021/08/08 00:42:12;;;;;;;;;;;16.80;99.90;16.80;99221.00;;;;343215;28;82619;-89
2021/08/08 00:42:25;;;;;;;;;;;16.80;99.90;16.90;99221.00;;;;341991;28;88037;-89
2021/08/08 00:42:37;;;;;;;;;;;16.80;99.90;16.90;99218.00;;;;346253;28;83369;-89
2021/08/08 00:42:50;;;;;;;;;;;16.80;99.90;16.90;99221.00;;;;343315;28;85102;-89
2021/08/08 00:43:02;;;;;;;;;;;16.80;99.90;16.90;99226.00;;;;343594;28;82391;-89
2021/08/08 00:43:14;;;;;;;;;;;16.80;99.90;16.90;99222.00;;;;342057;28;84374;-89
2021/08/08 00:43:27;;;;;;;;;;;16.80;99.90;16.80;99224.00;;;;342156;28;83305;-88
2021/08/08 00:43:39;;;;;;;;;;;16.80;99.90;16.80;99222.00;;;;341724;28;85670;-89
2021/08/08 00:43:51;;;;;;;;;;;16.80;99.90;16.90;99232.00;;;;342083;28;82595;-89
2021/08/08 00:44:05;;;;;;;;;;;16.70;99.90;16.90;99232.00;;;;345847;28;86808;-89
2021/08/08 00:44:17;;;;;;;;;;;16.80;99.90;16.90;99220.00;;;;344851;28;83366;-90
2021/08/08 00:44:29;;;;;;;;;;;16.70;99.90;16.90;99227.00;;;;339371;28;84936;-89
2021/08/08 00:44:42;;;;;;;;;;;16.70;99.90;16.90;99222.00;;;;342189;28;83214;-89
2021/08/08 00:44:54;;;;;;;;;;;16.70;99.90;16.90;99216.00;;;;343080;28;86173;-89
2021/08/08 00:45:07;;;;;;;;;;;16.70;99.90;16.90;99219.00;;;;344511;28;83685;-89
2021/08/08 00:45:20;;;;;;;;;;;16.70;99.90;16.90;99223.00;;;;343242;28;85820;-89
2021/08/08 00:45:32;;;;;;;;;;;16.70;99.90;17.00;99223.00;;;;343459;28;83374;-89
2021/08/08 00:45:45;;;;;;;;;;;16.70;99.90;17.00;99211.00;;;;343422;28;84667;-89
2021/08/08 00:45:57;;;;;;;;;;;16.70;99.90;17.00;99220.00;;;;341909;28;82576;-89
2021/08/08 00:46:09;;;;;;;;;;;16.70;99.90;17.20;99218.00;;;;340607;28;84494;-89
2021/08/08 00:46:22;;;;;;;;;;;16.80;99.90;17.20;99216.00;;;;341854;28;82663;-89
2021/08/08 00:46:35;;;;;;;;;;;16.80;99.90;17.20;99216.00;;;;342005;28;84056;-89
2021/08/08 00:46:47;;;;;;;;;;;16.80;99.90;17.20;99219.00;;;;340514;28;83550;-89
2021/08/08 00:47:00;;;;;;;;;;;16.80;99.90;17.20;99215.00;;;;343150;28;86401;-89
2021/08/08 00:47:12;;;;;;;;;;;16.80;99.90;17.20;99223.00;;;;343425;28;83499;-89
2021/08/08 00:47:25;;;;;;;;;;;16.80;99.90;17.20;99219.00;;;;343095;28;86182;-90
2021/08/08 00:47:38;;;;;;;;;;;16.80;99.90;17.20;99219.00;;;;343202;28;83556;-89
2021/08/08 00:47:50;;;;;;;;;;;16.80;99.90;17.10;99212.00;;;;343152;28;85326;-89
2021/08/08 00:48:04;;;;;;;;;;;16.80;99.90;17.00;99211.00;;;;343485;28;83498;-89
2021/08/08 00:48:16;;;;;;;;;;;16.80;99.90;17.00;99216.00;;;;343117;28;86662;-89
2021/08/08 00:48:29;;;;;;;;;;;16.80;99.90;17.10;99217.00;;;;343303;28;83460;-89
2021/08/08 00:48:42;;;;;;;;;;;16.80;99.90;17.20;99219.00;;;;341779;28;85095;-89
2021/08/08 00:48:54;;;;;;;;;;;16.80;99.90;17.20;99219.00;;;;343425;28;83479;-89
2021/08/08 00:49:08;;;;;;;;;;;16.90;99.90;17.10;99219.00;;;;344434;28;85799;-89
2021/08/08 00:49:20;;;;;;;;;;;16.90;99.90;17.10;99211.00;;;;343271;28;83503;-90
2021/08/08 00:49:33;;;;;;;;;;;16.80;99.90;17.20;99210.00;;;;339070;28;89028;-89
2021/08/08 00:49:46;;;;;;;;;;;16.80;99.90;17.20;99209.00;;;;342124;28;83499;-89
2021/08/08 00:49:59;;;;;;;;;;;16.90;99.90;17.30;99220.00;;;;343201;28;85975;-89
2021/08/08 00:50:11;;;;;;;;;;;16.90;99.90;17.20;99218.00;;;;342163;28;82462;-89
2021/08/08 00:50:23;;;;;;;;;;;16.90;99.90;17.10;99208.00;;;;340753;28;83914;-89
2021/08/08 00:50:36;;;;;;;;;;;16.90;99.90;17.10;99216.00;;;;344642;28;83520;-89
2021/08/08 00:50:48;;;;;;;;;;;16.90;99.90;17.10;99209.00;;;;343313;28;85342;-89
2021/08/08 00:51:00;;;;;;;;;;;16.90;99.90;17.00;99220.00;;;;339325;28;83389;-89
2021/08/08 00:51:12;;;;;;;;;;;16.90;99.90;17.10;99215.00;;;;343167;28;85499;-89
2021/08/08 00:51:26;;;;;;;;;;;16.80;99.90;17.00;99215.00;;;;340760;28;83453;-89
2021/08/08 00:51:38;;;;;;;;;;;16.90;99.90;16.90;99213.00;;;;343420;28;85557;-89
2021/08/08 00:51:50;;;;;;;;;;;16.80;99.90;16.80;99216.00;;;;340607;28;83484;-91
2021/08/08 00:52:04;;;;;;;;;;;16.80;99.90;16.90;99215.00;;;;344462;28;86700;-90
2021/08/08 00:52:16;;;;;;;;;;;16.80;99.90;17.00;99212.00;;;;343425;28;83451;-89
2021/08/08 00:52:28;;;;;;;;;;;16.80;99.90;17.10;99219.00;;;;344560;28;84995;-88
2021/08/08 00:52:40;;;;;;;;;;;16.80;99.90;17.00;99216.00;;;;342145;28;83323;-89
2021/08/08 00:52:53;;;;;;;;;;;16.80;99.90;17.00;99213.00;;;;343241;28;87486;-89
2021/08/08 00:53:06;;;;;;;;;;;16.80;99.90;16.90;99214.00;;;;342111;28;83411;-88
2021/08/08 00:53:18;;;;;;;;;;;16.80;99.90;16.90;99210.00;;;;342033;28;84919;-89
2021/08/08 00:53:31;;;;;;;;;;;16.80;99.90;17.00;99211.00;;;;343239;28;83575;-89
2021/08/08 00:53:44;;;;;;;;;;;16.80;99.90;17.00;99209.00;;;;344732;28;84299;-90
2021/08/08 00:53:56;;;;;;;;;;;16.80;99.90;17.00;99209.00;;;;343550;28;83338;-89
2021/08/08 00:54:08;;;;;;;;;;;16.80;99.90;17.00;99221.00;;;;343060;28;86611;-89
2021/08/08 00:54:22;;;;;;;;;;;16.80;99.90;17.00;99212.00;;;;342211;28;83223;-88
2021/08/08 00:54:34;;;;;;;;;;;16.80;99.90;17.00;99213.00;;;;343153;28;83453;-89
2021/08/08 00:54:47;;;;;;;;;;;16.80;99.90;16.90;99217.00;;;;338918;28;83479;-89
2021/08/08 00:55:00;;;;;;;;;;;16.80;99.90;16.90;99209.00;;;;340525;28;87002;-89
2021/08/08 00:55:13;;;;;;;;;;;16.80;99.90;16.80;99216.00;;;;344669;28;83405;-89
2021/08/08 00:55:26;;;;;;;;;;;16.80;99.90;16.80;99211.00;;;;343103;28;86934;-89
2021/08/08 00:55:38;;;;;;;;;;;16.80;99.90;16.90;99217.00;;;;343130;28;82603;-88
2021/08/08 00:55:51;;;;;;;;;;;16.80;99.90;16.90;99215.00;;;;343194;28;85524;-89
2021/08/08 00:56:04;;;;;;;;;;;16.80;99.90;16.80;99213.00;;;;343485;28;83394;-89
2021/08/08 00:56:16;;;;;;;;;;;16.80;99.90;16.80;99206.00;;;;341581;28;83251;-89
2021/08/08 00:56:29;;;;;;;;;;;16.70;99.90;16.80;99206.00;;;;344631;28;83534;-89
2021/08/08 00:56:42;;;;;;;;;;;16.70;99.90;16.80;99207.00;;;;344536;28;85344;-89
2021/08/08 00:56:54;;;;;;;;;;;16.70;99.90;16.70;99211.00;;;;343146;28;83514;-89
2021/08/08 00:57:06;;;;;;;;;;;16.70;99.90;16.80;99216.00;;;;341937;28;84488;-89
2021/08/08 00:57:18;;;;;;;;;;;16.70;99.90;16.80;99214.00;;;;343450;28;83194;-89
2021/08/08 00:57:32;;;;;;;;;;;16.70;99.90;16.90;99209.00;;;;342960;28;83823;-89
2021/08/08 00:57:44;;;;;;;;;;;16.70;99.90;16.90;99211.00;;;;343541;28;83293;-89
2021/08/08 00:57:56;;;;;;;;;;;16.70;99.90;16.90;99210.00;;;;340773;28;83780;-89
2021/08/08 00:58:09;;;;;;;;;;;16.70;99.90;17.00;99210.00;;;;344608;28;83544;-89
2021/08/08 00:58:22;;;;;;;;;;;16.70;99.90;16.90;99202.00;;;;344506;28;86800;-90
2021/08/08 00:58:35;;;;;;;;;;;16.70;99.90;17.00;99212.00;;;;344572;28;82585;-89
2021/08/08 00:58:48;;;;;;;;;;;16.70;99.90;17.10;99212.00;;;;343413;28;83702;-89
2021/08/08 00:59:00;;;;;;;;;;;16.70;99.90;16.90;99211.00;;;;342183;28;82433;-89
2021/08/08 00:59:13;;;;;;;;;;;16.70;99.90;16.90;99213.00;;;;344427;28;86122;-89
2021/08/08 00:59:25;;;;;;;;;;;16.70;99.90;16.80;99205.00;;;;344240;28;83585;-89
2021/08/08 00:59:38;;;;;;;;;;;16.70;99.90;16.90;99206.00;;;;344125;28;84119;-89
2021/08/08 00:59:50;;;;;;;;;;;16.70;99.90;16.90;99208.00;;;;341947;28;83475;-89
2021/08/08 01:00:04;;;;;;;;;;;16.70;99.90;16.80;99207.00;;;;342036;28;84415;-89
2021/08/08 01:00:17;;;;;;;;;;;16.70;99.90;16.80;99202.00;;;;343417;28;83368;-89
2021/08/08 01:00:29;;;;;;;;;;;16.70;99.90;16.80;99208.00;;;;344668;28;85538;-89
2021/08/08 01:00:41;;;;;;;;;;;16.70;99.90;16.80;99211.00;;;;343309;28;83246;-89
2021/08/08 01:00:56;;;;;;;;;;;16.70;99.90;16.80;99206.00;;;;341705;28;85923;-89
2021/08/08 01:01:08;;;;;;;;;;;16.70;99.90;16.80;99203.00;;;;340633;28;84497;-89
2021/08/08 01:01:23;;;;;;;;;;;16.70;99.90;16.80;99200.00;;;;341791;28;85428;-89
2021/08/08 01:01:42;;;;;;;;;;;16.60;99.90;16.80;99204.00;;;;344556;28;83559;-89
2021/08/08 01:01:55;;;;;;;;;;;16.70;99.90;16.80;99210.00;;;;343526;28;86974;-90
2021/08/08 01:02:08;;;;;;;;;;;16.60;99.90;16.70;99207.00;;;;341738;28;83520;-89
2021/08/08 01:02:21;;;;;;;;;;;16.60;99.90;16.70;99204.00;;;;343214;28;85319;-89
2021/08/08 01:02:33;;;;;;;;;;;16.60;99.90;16.70;99201.00;;;;343212;28;82537;-89
2021/08/08 01:02:48;;;;;;;;;;;16.60;99.90;16.80;99202.00;;;;343069;28;86412;-89
2021/08/08 01:03:02;;;;;;;;;;;16.60;99.90;16.80;99207.00;;;;341889;28;83495;-89
2021/08/08 01:03:15;;;;;;;;;;;16.60;99.90;16.90;99204.00;;;;343082;28;85508;-89